Terminal Aerodrome Forecast
Issued by NWS Milwaukee/Sullivan, WI

Home | Current Version | Previous Version | Text Only | Print | Product List | Glossary On
Versions: 1 2 3 4 5 6 7 8 9 10 11 12 13 14 15 16 17 18 19 20 21 22 23 24 25 26 27 28 29 30 31 32 33 34 35 36 37 38 39 40 41 42 43 44 45 46 47 48 49 50
000
FTUS43 KMKX 210844 AAA
TAFMSN
TAF AMD
KMSN 210844Z 2109/2206 VRB03KT P6SM SCT008 BKN011
      TEMPO 2110/2112 3SM SHRA
     FM211200 VRB03KT 3SM BR BKN015
     FM211500 17006KT P6SM SCT035 BKN080
     FM211900 16008KT P6SM BKN035
      TEMPO 2120/2124 3SM TSRA BKN030CB
     FM220000 13005KT P6SM VCTS BKN035CB=

USA.gov is the U.S. government's official web portal to all federal, state and local government web resources and services.